createdAt,value
2019-05-11T00:02:06.777Z,6.25
2019-05-11T00:07:13.052Z,5.79
2019-05-11T00:12:19.487Z,5.97
2019-05-11T00:17:25.730Z,5.51
2019-05-11T00:22:31.952Z,5.63
2019-05-11T00:27:38.431Z,5.94
2019-05-11T00:32:44.803Z,5.75
2019-05-11T00:37:51.302Z,5.68
2019-05-11T00:42:57.521Z,5.95
2019-05-11T00:48:04.067Z,7.65
2019-05-11T00:53:10.325Z,6.67
2019-05-11T00:58:16.416Z,7.07
2019-05-11T01:03:22.778Z,6.54
2019-05-11T01:08:29.081Z,6.98
2019-05-11T01:13:35.316Z,7.19
2019-05-11T01:18:41.813Z,6.97
2019-05-11T01:23:48.241Z,8.25
2019-05-11T01:28:54.484Z,7.46
2019-05-11T01:34:00.703Z,8.27
2019-05-11T01:39:07.004Z,7.72
2019-05-11T01:44:13.220Z,8.79
2019-05-11T01:49:19.663Z,8.02
2019-05-11T01:54:25.850Z,8.45
2019-05-11T01:59:32.012Z,8.35
2019-05-11T02:04:38.185Z,8.49
2019-05-11T02:09:44.530Z,8.36
2019-05-11T02:14:50.710Z,8.22
2019-05-11T02:19:57.027Z,8.14
2019-05-11T02:25:03.235Z,8.40
2019-05-11T02:30:09.356Z,7.77
2019-05-11T02:35:16.148Z,8.40
2019-05-11T02:40:22.321Z,8.35
2019-05-11T02:45:28.724Z,8.17
2019-05-11T02:50:34.849Z,8.97
2019-05-11T02:55:41.039Z,9.84
2019-05-11T03:00:47.549Z,9.03
2019-05-11T03:05:53.947Z,8.78
2019-05-11T03:11:00.222Z,8.18
2019-05-11T03:16:06.452Z,8.93
2019-05-11T03:21:13.035Z,9.56
2019-05-11T03:26:19.663Z,9.45
2019-05-11T03:31:26.021Z,9.87
2019-05-11T03:36:32.365Z,9.61
2019-05-11T03:41:38.583Z,9.96
2019-05-11T03:46:44.678Z,9.06
2019-05-11T03:51:50.783Z,8.83
2019-05-11T03:56:56.937Z,9.62
2019-05-11T04:02:03.117Z,8.74
2019-05-11T04:07:09.704Z,8.71
2019-05-11T04:12:33.348Z,7.62
2019-05-11T04:17:22.461Z,7.72
2019-05-11T04:22:29.318Z,8.11
2019-05-11T04:27:35.704Z,7.90
2019-05-11T04:32:42.183Z,7.55
2019-05-11T04:37:48.589Z,6.95
2019-05-11T04:42:56.202Z,6.88
2019-05-11T04:48:02.812Z,5.92
2019-05-11T04:53:09.378Z,5.85
2019-05-11T04:58:15.866Z,5.79
2019-05-11T05:03:22.274Z,6.02
2019-05-11T05:08:28.776Z,6.91
2019-05-11T05:13:35.298Z,6.58
2019-05-11T05:18:41.912Z,6.63
2019-05-11T05:23:48.107Z,6.17
2019-05-11T05:28:54.496Z,6.31
2019-05-11T05:34:01.599Z,6.36
2019-05-11T05:39:09.020Z,6.64
2019-05-11T05:44:15.971Z,6.13
2019-05-11T05:49:22.592Z,6.33
2019-05-11T05:54:29.034Z,6.09
2019-05-11T05:59:35.442Z,5.78
2019-05-11T06:04:41.812Z,5.03
2019-05-11T06:09:48.321Z,5.14
2019-05-11T06:14:54.559Z,4.83
2019-05-11T06:20:04.629Z,4.63
2019-05-11T06:25:01.578Z,4.55
2019-05-11T06:30:08.010Z,4.03
2019-05-11T06:50:34.681Z,3.44
2019-05-11T06:55:40.948Z,3.59
2019-05-11T07:00:48.318Z,3.82
2019-05-11T07:16:09.961Z,2.87
2019-05-11T08:02:17.788Z,2.20
2019-05-11T08:17:39.740Z,5.60
2019-05-11T08:22:48.208Z,4.18
2019-05-11T08:27:54.730Z,7.42
2019-05-11T08:38:08.808Z,2.68
2019-05-11T08:43:17.801Z,3.46
2019-05-11T08:48:24.392Z,3.13
2019-05-11T08:53:31.083Z,2.66
2019-05-11T08:58:38.119Z,6.15
2019-05-11T09:03:44.997Z,2.96
2019-05-11T09:08:51.382Z,2.58
2019-05-11T09:13:57.979Z,3.32
2019-05-11T09:19:04.336Z,3.89
2019-05-11T09:24:10.960Z,2.37
2019-05-11T09:29:17.972Z,7.08
2019-05-11T09:34:24.644Z,2.23
2019-05-11T09:39:31.064Z,2.37
2019-05-11T09:44:38.108Z,3.30
2019-05-11T09:49:47.951Z,3.66
2019-05-11T09:54:48.772Z,2.75
2019-05-11T09:59:58.125Z,3.62
2019-05-11T10:05:08.457Z,3.02
2019-05-11T10:10:05.106Z,4.36
2019-05-11T10:15:13.392Z,2.49
2019-05-11T10:20:20.208Z,2.81
2019-05-11T10:25:28.691Z,2.67
2019-05-11T10:30:35.629Z,3.86
2019-05-11T10:35:42.493Z,4.67
2019-05-11T10:40:49.215Z,3.93
2019-05-11T10:45:55.864Z,10.08
2019-05-11T10:51:02.353Z,3.64
2019-05-11T10:56:09.001Z,12.61
2019-05-11T11:01:18.205Z,7.72
2019-05-11T11:06:24.772Z,3.58
2019-05-11T11:11:31.330Z,8.66
2019-05-11T11:16:42.036Z,7.60
2019-05-11T11:21:39.509Z,4.94
2019-05-11T11:26:48.388Z,5.46
2019-05-11T11:31:55.443Z,4.18
2019-05-11T11:37:02.210Z,6.92
2019-05-11T11:42:08.756Z,6.74
2019-05-11T11:47:20.729Z,3.71
2019-05-11T11:52:18.792Z,5.50
2019-05-11T11:57:25.412Z,6.72
2019-05-11T12:02:32.696Z,3.52
2019-05-11T12:07:39.564Z,2.96
2019-05-11T12:12:47.558Z,3.19
2019-05-11T12:17:54.122Z,4.02
2019-05-11T12:23:00.499Z,3.21
2019-05-11T12:28:08.213Z,4.71
2019-05-11T12:33:14.419Z,3.69
2019-05-11T12:38:21.317Z,4.63
2019-05-11T12:43:27.844Z,4.52
2019-05-11T12:48:34.428Z,10.98
2019-05-11T12:53:40.782Z,4.24
2019-05-11T12:58:49.140Z,4.31
2019-05-11T13:03:57.901Z,3.02
2019-05-11T13:09:04.688Z,3.00
2019-05-11T13:14:11.286Z,4.30
2019-05-11T13:19:17.765Z,3.65
2019-05-11T13:24:24.117Z,3.94
2019-05-11T13:29:30.770Z,3.50
2019-05-11T13:34:38.709Z,2.73
2019-05-11T13:39:45.376Z,3.62
2019-05-11T13:44:51.672Z,4.50
2019-05-11T13:49:58.526Z,4.11
2019-05-11T13:55:04.844Z,3.51
2019-05-11T14:00:11.436Z,2.94
2019-05-11T14:05:18.193Z,2.56
2019-05-11T14:10:25.288Z,3.06
2019-05-11T14:15:32.588Z,2.93
2019-05-11T14:20:39.155Z,2.45
2019-05-11T14:25:45.523Z,2.38
2019-05-11T14:30:51.758Z,3.54
2019-05-11T14:35:58.216Z,2.62
2019-05-11T14:41:04.936Z,2.31
2019-05-11T14:46:11.363Z,3.67
2019-05-11T14:51:18.285Z,2.19
2019-05-11T14:56:24.601Z,2.62
2019-05-11T15:01:31.692Z,3.23
2019-05-11T15:06:38.650Z,2.71
2019-05-11T15:11:48.078Z,3.23
2019-05-11T15:16:54.607Z,3.03
2019-05-11T15:22:01.263Z,2.42
2019-05-11T15:27:08.199Z,2.46
2019-05-11T15:32:15.024Z,3.87
2019-05-11T15:37:21.486Z,3.21
2019-05-11T15:42:28.817Z,2.76
2019-05-11T15:47:37.589Z,2.06
2019-05-11T15:52:45.381Z,2.60
2019-05-11T15:57:51.560Z,2.84
2019-05-11T16:02:58.110Z,3.35
2019-05-11T16:08:04.335Z,4.69
2019-05-11T16:13:11.018Z,3.99
2019-05-11T16:18:18.845Z,3.81
2019-05-11T16:23:28.224Z,2.43
2019-05-11T16:28:34.871Z,2.58
2019-05-11T16:33:41.219Z,2.10
2019-05-11T16:38:48.385Z,3.71
2019-05-11T16:43:55.083Z,4.21
2019-05-11T16:49:01.616Z,3.02
2019-05-11T16:54:07.940Z,2.54
2019-05-11T16:59:14.317Z,2.99
2019-05-11T17:04:21.292Z,3.04
2019-05-11T17:09:27.678Z,2.26
2019-05-11T17:14:34.839Z,2.27
2019-05-11T17:19:45.530Z,2.59
2019-05-11T17:24:42.870Z,3.49
2019-05-11T17:29:49.327Z,3.49
2019-05-11T17:34:57.979Z,2.51
2019-05-11T17:40:04.906Z,2.97
2019-05-11T17:45:11.564Z,2.78
2019-05-11T17:50:19.061Z,2.51
2019-05-11T17:55:25.846Z,2.66
2019-05-11T18:00:32.320Z,3.07
2019-05-11T18:05:38.626Z,2.46
2019-05-11T18:10:48.650Z,2.83
2019-05-11T18:15:44.985Z,2.55
2019-05-11T18:20:51.529Z,5.07
2019-05-11T18:25:57.718Z,2.85
2019-05-11T18:31:04.295Z,2.71
2019-05-11T18:36:10.807Z,2.92
2019-05-11T18:41:17.246Z,2.98
2019-05-11T18:46:23.772Z,2.55
2019-05-11T18:51:30.179Z,2.73
2019-05-11T18:56:38.173Z,2.79
2019-05-11T19:01:45.195Z,2.74
2019-05-11T19:06:51.713Z,2.74
2019-05-11T19:11:58.233Z,2.76
2019-05-11T19:17:04.651Z,2.77
2019-05-11T19:22:11.136Z,3.10
2019-05-11T19:42:39.938Z,2.64
2019-05-11T20:03:09.159Z,3.15
2019-05-11T20:08:18.240Z,3.01
2019-05-11T20:18:32.326Z,4.31
2019-05-11T20:44:05.421Z,3.85
2019-05-11T21:09:38.011Z,2.63
2019-05-11T21:14:44.426Z,2.70
2019-05-11T21:19:50.745Z,2.86
2019-05-11T21:45:23.900Z,2.83
2019-05-11T22:10:59.766Z,2.68
2019-05-11T22:16:08.516Z,3.64
2019-05-11T22:26:21.372Z,2.92
2019-05-11T22:31:28.145Z,2.84
2019-05-11T22:36:34.369Z,3.76
2019-05-11T22:51:54.442Z,2.90
2019-05-11T22:57:01.151Z,2.68
2019-05-11T23:02:07.681Z,2.95
2019-05-11T23:07:18.498Z,2.58
2019-05-11T23:12:25.041Z,2.77
2019-05-11T23:17:31.448Z,2.69
2019-05-11T23:27:43.888Z,3.01
2019-05-11T23:32:50.233Z,2.46
2019-05-11T23:37:58.126Z,2.58
2019-05-11T23:43:04.519Z,2.58
2019-05-11T23:48:10.696Z,3.12
2019-05-11T23:53:17.778Z,2.89
2019-05-11T23:58:24.421Z,3.09
